sensor_id;sensor_type;location;lat;lon;timestamp;P1;durP1;ratioP1;P2;durP2;ratioP2
23310;SDS011;11828;51.508;18.118;2022-11-20T00:00:04;210.02;;;110.85;;
23310;SDS011;11828;51.508;18.118;2022-11-20T00:02:51;128.25;;;96.30;;
23310;SDS011;11828;51.508;18.118;2022-11-20T00:05:17;217.95;;;112.32;;
23310;SDS011;11828;51.508;18.118;2022-11-20T00:07:43;120.90;;;100.40;;
23310;SDS011;11828;51.508;18.118;2022-11-20T00:10:09;127.68;;;98.35;;
23310;SDS011;11828;51.508;18.118;2022-11-20T00:12:35;170.68;;;109.93;;
23310;SDS011;11828;51.508;18.118;2022-11-20T00:15:01;204.15;;;117.70;;
23310;SDS011;11828;51.508;18.118;2022-11-20T00:17:28;222.85;;;119.82;;
23310;SDS011;11828;51.508;18.118;2022-11-20T00:19:54;215.93;;;111.07;;
23310;SDS011;11828;51.508;18.118;2022-11-20T00:22:20;218.60;;;115.80;;
23310;SDS011;11828;51.508;18.118;2022-11-20T00:24:46;133.25;;;97.32;;
23310;SDS011;11828;51.508;18.118;2022-11-20T00:27:12;216.10;;;113.40;;
23310;SDS011;11828;51.508;18.118;2022-11-20T00:29:39;218.70;;;116.03;;
23310;SDS011;11828;51.508;18.118;2022-11-20T00:32:04;211.50;;;119.20;;
23310;SDS011;11828;51.508;18.118;2022-11-20T00:34:31;182.88;;;111.65;;
23310;SDS011;11828;51.508;18.118;2022-11-20T00:36:57;176.93;;;110.50;;
23310;SDS011;11828;51.508;18.118;2022-11-20T00:39:23;211.32;;;121.20;;
23310;SDS011;11828;51.508;18.118;2022-11-20T00:41:49;224.83;;;126.33;;
23310;SDS011;11828;51.508;18.118;2022-11-20T00:44:15;262.20;;;142.17;;
23310;SDS011;11828;51.508;18.118;2022-11-20T00:46:41;326.52;;;160.10;;
23310;SDS011;11828;51.508;18.118;2022-11-20T00:49:07;423.00;;;193.68;;
23310;SDS011;11828;51.508;18.118;2022-11-20T00:51:33;285.53;;;152.60;;
23310;SDS011;11828;51.508;18.118;2022-11-20T00:53:59;226.48;;;127.80;;
23310;SDS011;11828;51.508;18.118;2022-11-20T00:56:27;286.40;;;144.23;;
23310;SDS011;11828;51.508;18.118;2022-11-20T00:58:54;245.00;;;132.67;;
23310;SDS011;11828;51.508;18.118;2022-11-20T01:01:20;231.37;;;122.90;;
23310;SDS011;11828;51.508;18.118;2022-11-20T01:03:55;207.00;;;110.63;;
23310;SDS011;11828;51.508;18.118;2022-11-20T01:06:26;211.05;;;112.95;;
23310;SDS011;11828;51.508;18.118;2022-11-20T01:08:59;395.48;;;168.93;;
23310;SDS011;11828;51.508;18.118;2022-11-20T01:11:29;411.33;;;190.10;;
23310;SDS011;11828;51.508;18.118;2022-11-20T01:14:00;402.98;;;189.75;;
23310;SDS011;11828;51.508;18.118;2022-11-20T01:16:29;272.02;;;133.23;;
23310;SDS011;11828;51.508;18.118;2022-11-20T01:19:05;231.68;;;117.60;;
23310;SDS011;11828;51.508;18.118;2022-11-20T01:21:35;240.88;;;120.18;;
23310;SDS011;11828;51.508;18.118;2022-11-20T01:24:06;228.80;;;115.20;;
23310;SDS011;11828;51.508;18.118;2022-11-20T01:26:37;219.88;;;117.38;;
23310;SDS011;11828;51.508;18.118;2022-11-20T01:29:06;230.85;;;120.50;;
23310;SDS011;11828;51.508;18.118;2022-11-20T01:31:38;224.43;;;119.40;;
23310;SDS011;11828;51.508;18.118;2022-11-20T01:34:15;224.38;;;119.47;;
23310;SDS011;11828;51.508;18.118;2022-11-20T01:36:43;219.73;;;120.28;;
23310;SDS011;11828;51.508;18.118;2022-11-20T01:39:12;219.90;;;115.65;;
23310;SDS011;11828;51.508;18.118;2022-11-20T01:41:45;212.00;;;116.95;;
23310;SDS011;11828;51.508;18.118;2022-11-20T01:47:29;222.93;;;121.35;;
23310;SDS011;11828;51.508;18.118;2022-11-20T01:50:18;218.95;;;115.63;;
23310;SDS011;11828;51.508;18.118;2022-11-20T01:52:57;208.32;;;116.28;;
23310;SDS011;11828;51.508;18.118;2022-11-20T01:55:33;230.45;;;122.82;;
23310;SDS011;11828;51.508;18.118;2022-11-20T01:58:04;218.98;;;119.15;;
23310;SDS011;11828;51.508;18.118;2022-11-20T02:00:31;219.40;;;119.43;;
23310;SDS011;11828;51.508;18.118;2022-11-20T02:02:58;208.68;;;116.93;;
23310;SDS011;11828;51.508;18.118;2022-11-20T02:08:29;188.00;;;111.38;;
23310;SDS011;11828;51.508;18.118;2022-11-20T02:10:56;195.85;;;114.10;;
23310;SDS011;11828;51.508;18.118;2022-11-20T02:13:22;173.73;;;107.85;;
23310;SDS011;11828;51.508;18.118;2022-11-20T02:18:42;152.43;;;103.03;;
23310;SDS011;11828;51.508;18.118;2022-11-20T02:21:15;169.57;;;107.97;;
23310;SDS011;11828;51.508;18.118;2022-11-20T02:24:15;140.30;;;96.55;;
23310;SDS011;11828;51.508;18.118;2022-11-20T02:26:53;129.02;;;94.32;;
23310;SDS011;11828;51.508;18.118;2022-11-20T02:32:24;130.43;;;94.45;;
23310;SDS011;11828;51.508;18.118;2022-11-20T02:34:56;146.65;;;100.38;;
23310;SDS011;11828;51.508;18.118;2022-11-20T02:37:22;142.73;;;101.22;;
23310;SDS011;11828;51.508;18.118;2022-11-20T02:39:54;157.88;;;101.85;;
23310;SDS011;11828;51.508;18.118;2022-11-20T02:42:20;165.63;;;105.95;;
23310;SDS011;11828;51.508;18.118;2022-11-20T02:44:46;158.55;;;101.68;;
23310;SDS011;11828;51.508;18.118;2022-11-20T02:47:12;168.13;;;105.43;;
23310;SDS011;11828;51.508;18.118;2022-11-20T02:49:38;145.40;;;100.45;;
23310;SDS011;11828;51.508;18.118;2022-11-20T02:52:04;160.18;;;102.78;;
23310;SDS011;11828;51.508;18.118;2022-11-20T02:54:30;149.98;;;99.32;;
23310;SDS011;11828;51.508;18.118;2022-11-20T02:56:56;189.20;;;113.88;;
23310;SDS011;11828;51.508;18.118;2022-11-20T02:59:22;233.23;;;123.55;;
23310;SDS011;11828;51.508;18.118;2022-11-20T03:01:48;169.25;;;112.07;;
23310;SDS011;11828;51.508;18.118;2022-11-20T03:04:14;185.18;;;113.18;;
23310;SDS011;11828;51.508;18.118;2022-11-20T03:06:41;187.98;;;114.38;;
23310;SDS011;11828;51.508;18.118;2022-11-20T03:09:06;195.40;;;115.95;;
23310;SDS011;11828;51.508;18.118;2022-11-20T03:11:33;173.20;;;108.18;;
23310;SDS011;11828;51.508;18.118;2022-11-20T03:14:01;164.15;;;106.97;;
23310;SDS011;11828;51.508;18.118;2022-11-20T03:16:30;173.30;;;109.25;;
23310;SDS011;11828;51.508;18.118;2022-11-20T03:18:57;474.45;;;217.13;;
23310;SDS011;11828;51.508;18.118;2022-11-20T03:21:23;209.70;;;125.35;;
23310;SDS011;11828;51.508;18.118;2022-11-20T03:23:49;199.07;;;116.90;;
23310;SDS011;11828;51.508;18.118;2022-11-20T03:26:22;193.85;;;115.05;;
23310;SDS011;11828;51.508;18.118;2022-11-20T03:28:51;154.80;;;101.72;;
23310;SDS011;11828;51.508;18.118;2022-11-20T03:31:35;158.48;;;106.35;;
23310;SDS011;11828;51.508;18.118;2022-11-20T03:34:05;165.10;;;111.78;;
23310;SDS011;11828;51.508;18.118;2022-11-20T03:36:34;156.05;;;104.05;;
23310;SDS011;11828;51.508;18.118;2022-11-20T03:39:01;165.02;;;102.82;;
23310;SDS011;11828;51.508;18.118;2022-11-20T03:41:28;146.52;;;99.10;;
23310;SDS011;11828;51.508;18.118;2022-11-20T03:46:25;154.68;;;101.93;;
23310;SDS011;11828;51.508;18.118;2022-11-20T03:48:52;158.65;;;104.78;;
23310;SDS011;11828;51.508;18.118;2022-11-20T03:51:20;149.10;;;103.20;;
23310;SDS011;11828;51.508;18.118;2022-11-20T03:53:49;143.90;;;101.63;;
23310;SDS011;11828;51.508;18.118;2022-11-20T03:56:18;142.73;;;100.13;;
23310;SDS011;11828;51.508;18.118;2022-11-20T03:58:47;133.90;;;98.88;;
23310;SDS011;11828;51.508;18.118;2022-11-20T04:01:18;129.68;;;97.15;;
23310;SDS011;11828;51.508;18.118;2022-11-20T04:03:52;131.70;;;95.65;;
23310;SDS011;11828;51.508;18.118;2022-11-20T04:06:21;143.50;;;100.93;;
23310;SDS011;11828;51.508;18.118;2022-11-20T04:09:06;175.80;;;108.68;;
23310;SDS011;11828;51.508;18.118;2022-11-20T04:11:33;160.43;;;106.22;;
23310;SDS011;11828;51.508;18.118;2022-11-20T04:14:03;149.32;;;100.60;;
23310;SDS011;11828;51.508;18.118;2022-11-20T04:16:37;151.20;;;104.57;;
23310;SDS011;11828;51.508;18.118;2022-11-20T04:19:04;144.75;;;103.07;;
23310;SDS011;11828;51.508;18.118;2022-11-20T04:21:35;141.88;;;99.00;;
23310;SDS011;11828;51.508;18.118;2022-11-20T04:24:01;127.03;;;95.57;;
23310;SDS011;11828;51.508;18.118;2022-11-20T04:26:28;134.05;;;99.75;;
23310;SDS011;11828;51.508;18.118;2022-11-20T04:28:55;150.02;;;103.68;;
23310;SDS011;11828;51.508;18.118;2022-11-20T04:31:23;137.27;;;99.28;;
23310;SDS011;11828;51.508;18.118;2022-11-20T04:33:52;142.40;;;99.88;;
23310;SDS011;11828;51.508;18.118;2022-11-20T04:38:46;147.77;;;102.35;;
23310;SDS011;11828;51.508;18.118;2022-11-20T04:41:20;126.40;;;97.93;;
23310;SDS011;11828;51.508;18.118;2022-11-20T04:43:48;121.55;;;94.90;;
23310;SDS011;11828;51.508;18.118;2022-11-20T04:46:17;118.10;;;95.15;;
23310;SDS011;11828;51.508;18.118;2022-11-20T04:48:45;115.03;;;94.57;;
23310;SDS011;11828;51.508;18.118;2022-11-20T04:51:12;117.60;;;96.10;;
23310;SDS011;11828;51.508;18.118;2022-11-20T04:53:38;127.93;;;98.82;;
23310;SDS011;11828;51.508;18.118;2022-11-20T04:56:05;127.30;;;98.85;;
23310;SDS011;11828;51.508;18.118;2022-11-20T04:58:34;151.32;;;103.68;;
23310;SDS011;11828;51.508;18.118;2022-11-20T05:03:42;157.05;;;108.47;;
23310;SDS011;11828;51.508;18.118;2022-11-20T05:06:10;152.95;;;110.45;;
23310;SDS011;11828;51.508;18.118;2022-11-20T05:08:38;168.48;;;111.68;;
23310;SDS011;11828;51.508;18.118;2022-11-20T05:11:09;150.73;;;106.03;;
23310;SDS011;11828;51.508;18.118;2022-11-20T05:13:38;154.77;;;111.13;;
23310;SDS011;11828;51.508;18.118;2022-11-20T05:16:06;158.75;;;110.97;;
23310;SDS011;11828;51.508;18.118;2022-11-20T05:18:33;141.35;;;105.00;;
23310;SDS011;11828;51.508;18.118;2022-11-20T05:21:00;136.45;;;101.15;;
23310;SDS011;11828;51.508;18.118;2022-11-20T05:23:28;121.72;;;98.18;;
23310;SDS011;11828;51.508;18.118;2022-11-20T05:25:56;123.38;;;96.25;;
23310;SDS011;11828;51.508;18.118;2022-11-20T05:28:23;127.10;;;98.55;;
23310;SDS011;11828;51.508;18.118;2022-11-20T05:30:50;129.02;;;97.18;;
23310;SDS011;11828;51.508;18.118;2022-11-20T05:33:17;143.63;;;101.75;;
23310;SDS011;11828;51.508;18.118;2022-11-20T05:35:43;145.02;;;103.45;;
23310;SDS011;11828;51.508;18.118;2022-11-20T05:38:10;143.00;;;107.43;;
23310;SDS011;11828;51.508;18.118;2022-11-20T05:40:36;155.90;;;103.70;;
23310;SDS011;11828;51.508;18.118;2022-11-20T05:43:02;151.30;;;104.40;;
23310;SDS011;11828;51.508;18.118;2022-11-20T05:45:28;158.32;;;109.00;;
23310;SDS011;11828;51.508;18.118;2022-11-20T05:47:57;156.65;;;105.22;;
23310;SDS011;11828;51.508;18.118;2022-11-20T05:50:26;171.95;;;112.10;;
23310;SDS011;11828;51.508;18.118;2022-11-20T05:52:53;187.27;;;116.85;;
23310;SDS011;11828;51.508;18.118;2022-11-20T05:55:19;182.05;;;116.53;;
23310;SDS011;11828;51.508;18.118;2022-11-20T05:57:45;188.70;;;119.57;;
23310;SDS011;11828;51.508;18.118;2022-11-20T06:00:11;187.15;;;116.07;;
23310;SDS011;11828;51.508;18.118;2022-11-20T06:02:38;264.55;;;138.13;;
23310;SDS011;11828;51.508;18.118;2022-11-20T06:05:04;212.27;;;130.43;;
23310;SDS011;11828;51.508;18.118;2022-11-20T06:07:30;214.25;;;125.63;;
23310;SDS011;11828;51.508;18.118;2022-11-20T06:09:57;233.45;;;124.78;;
23310;SDS011;11828;51.508;18.118;2022-11-20T06:12:22;233.75;;;132.32;;
23310;SDS011;11828;51.508;18.118;2022-11-20T06:14:49;224.27;;;126.35;;
23310;SDS011;11828;51.508;18.118;2022-11-20T06:17:15;234.02;;;125.38;;
23310;SDS011;11828;51.508;18.118;2022-11-20T06:19:41;218.10;;;126.82;;
23310;SDS011;11828;51.508;18.118;2022-11-20T06:22:07;242.77;;;129.27;;
23310;SDS011;11828;51.508;18.118;2022-11-20T06:24:33;245.30;;;131.05;;
23310;SDS011;11828;51.508;18.118;2022-11-20T06:26:59;236.50;;;130.13;;
23310;SDS011;11828;51.508;18.118;2022-11-20T06:29:25;222.07;;;134.00;;
23310;SDS011;11828;51.508;18.118;2022-11-20T06:31:51;213.68;;;122.47;;
23310;SDS011;11828;51.508;18.118;2022-11-20T06:34:17;242.93;;;127.97;;
23310;SDS011;11828;51.508;18.118;2022-11-20T06:36:43;262.00;;;134.75;;
23310;SDS011;11828;51.508;18.118;2022-11-20T06:39:09;247.98;;;130.55;;
23310;SDS011;11828;51.508;18.118;2022-11-20T06:41:35;233.27;;;126.95;;
23310;SDS011;11828;51.508;18.118;2022-11-20T06:44:03;205.65;;;123.82;;
23310;SDS011;11828;51.508;18.118;2022-11-20T06:46:30;217.77;;;125.47;;
23310;SDS011;11828;51.508;18.118;2022-11-20T06:48:57;219.98;;;127.22;;
23310;SDS011;11828;51.508;18.118;2022-11-20T06:51:23;230.35;;;123.97;;
23310;SDS011;11828;51.508;18.118;2022-11-20T06:53:49;212.55;;;122.05;;
23310;SDS011;11828;51.508;18.118;2022-11-20T06:56:15;220.75;;;124.68;;
23310;SDS011;11828;51.508;18.118;2022-11-20T06:58:41;183.80;;;112.22;;
23310;SDS011;11828;51.508;18.118;2022-11-20T07:01:11;207.90;;;112.57;;
23310;SDS011;11828;51.508;18.118;2022-11-20T07:03:39;164.15;;;107.93;;
23310;SDS011;11828;51.508;18.118;2022-11-20T07:06:06;167.27;;;102.43;;
23310;SDS011;11828;51.508;18.118;2022-11-20T07:08:33;215.35;;;120.95;;
23310;SDS011;11828;51.508;18.118;2022-11-20T07:11:00;186.57;;;114.50;;
23310;SDS011;11828;51.508;18.118;2022-11-20T07:13:32;176.85;;;106.03;;
23310;SDS011;11828;51.508;18.118;2022-11-20T07:16:02;160.57;;;106.15;;
23310;SDS011;11828;51.508;18.118;2022-11-20T07:18:32;167.85;;;105.13;;
23310;SDS011;11828;51.508;18.118;2022-11-20T07:21:05;174.77;;;110.15;;
23310;SDS011;11828;51.508;18.118;2022-11-20T07:23:34;210.20;;;120.88;;
23310;SDS011;11828;51.508;18.118;2022-11-20T07:26:04;256.63;;;132.52;;
23310;SDS011;11828;51.508;18.118;2022-11-20T07:28:32;227.20;;;106.85;;
23310;SDS011;11828;51.508;18.118;2022-11-20T07:30:58;190.75;;;112.47;;
23310;SDS011;11828;51.508;18.118;2022-11-20T07:33:24;192.50;;;107.82;;
23310;SDS011;11828;51.508;18.118;2022-11-20T07:35:50;420.67;;;291.67;;
23310;SDS011;11828;51.508;18.118;2022-11-20T07:38:16;287.67;;;132.07;;
23310;SDS011;11828;51.508;18.118;2022-11-20T07:40:42;280.70;;;133.10;;
23310;SDS011;11828;51.508;18.118;2022-11-20T07:43:09;291.52;;;127.28;;
23310;SDS011;11828;51.508;18.118;2022-11-20T07:45:35;286.77;;;128.20;;
23310;SDS011;11828;51.508;18.118;2022-11-20T07:48:01;308.63;;;131.35;;
23310;SDS011;11828;51.508;18.118;2022-11-20T07:50:27;316.80;;;136.23;;
23310;SDS011;11828;51.508;18.118;2022-11-20T07:53:00;316.83;;;138.43;;
23310;SDS011;11828;51.508;18.118;2022-11-20T07:55:31;378.92;;;164.15;;
23310;SDS011;11828;51.508;18.118;2022-11-20T07:57:58;181.77;;;86.38;;
23310;SDS011;11828;51.508;18.118;2022-11-20T08:00:25;127.65;;;53.85;;
23310;SDS011;11828;51.508;18.118;2022-11-20T08:02:52;169.55;;;73.72;;
23310;SDS011;11828;51.508;18.118;2022-11-20T08:05:18;183.18;;;89.45;;
23310;SDS011;11828;51.508;18.118;2022-11-20T08:07:44;211.20;;;116.35;;
23310;SDS011;11828;51.508;18.118;2022-11-20T08:10:12;267.08;;;122.30;;
23310;SDS011;11828;51.508;18.118;2022-11-20T08:12:48;271.65;;;117.43;;
23310;SDS011;11828;51.508;18.118;2022-11-20T08:15:34;167.70;;;97.47;;
23310;SDS011;11828;51.508;18.118;2022-11-20T08:18:02;253.65;;;116.22;;
23310;SDS011;11828;51.508;18.118;2022-11-20T08:20:30;99.72;;;39.92;;
23310;SDS011;11828;51.508;18.118;2022-11-20T08:22:57;90.20;;;36.75;;
23310;SDS011;11828;51.508;18.118;2022-11-20T08:25:25;98.13;;;40.03;;
23310;SDS011;11828;51.508;18.118;2022-11-20T08:27:53;91.90;;;38.83;;
23310;SDS011;11828;51.508;18.118;2022-11-20T08:30:18;108.55;;;44.42;;
23310;SDS011;11828;51.508;18.118;2022-11-20T08:32:45;103.82;;;45.83;;
23310;SDS011;11828;51.508;18.118;2022-11-20T08:35:11;105.72;;;49.90;;
23310;SDS011;11828;51.508;18.118;2022-11-20T08:37:37;108.65;;;46.90;;
23310;SDS011;11828;51.508;18.118;2022-11-20T08:40:08;103.80;;;44.45;;
23310;SDS011;11828;51.508;18.118;2022-11-20T08:42:36;103.10;;;42.70;;
23310;SDS011;11828;51.508;18.118;2022-11-20T08:45:02;94.07;;;41.40;;
23310;SDS011;11828;51.508;18.118;2022-11-20T08:47:30;113.07;;;46.30;;
23310;SDS011;11828;51.508;18.118;2022-11-20T08:49:56;150.30;;;57.38;;
23310;SDS011;11828;51.508;18.118;2022-11-20T08:52:22;119.72;;;52.22;;
23310;SDS011;11828;51.508;18.118;2022-11-20T08:54:48;105.70;;;47.53;;
23310;SDS011;11828;51.508;18.118;2022-11-20T08:57:14;92.32;;;45.17;;
23310;SDS011;11828;51.508;18.118;2022-11-20T08:59:40;93.45;;;44.78;;
23310;SDS011;11828;51.508;18.118;2022-11-20T09:02:07;112.18;;;53.28;;
23310;SDS011;11828;51.508;18.118;2022-11-20T09:04:33;114.07;;;48.60;;
23310;SDS011;11828;51.508;18.118;2022-11-20T09:07:00;103.90;;;45.33;;
23310;SDS011;11828;51.508;18.118;2022-11-20T09:09:26;107.65;;;44.65;;
23310;SDS011;11828;51.508;18.118;2022-11-20T09:11:52;117.03;;;45.83;;
23310;SDS011;11828;51.508;18.118;2022-11-20T09:14:18;114.13;;;51.40;;
23310;SDS011;11828;51.508;18.118;2022-11-20T09:16:45;122.85;;;47.15;;
23310;SDS011;11828;51.508;18.118;2022-11-20T09:19:11;154.48;;;62.58;;
23310;SDS011;11828;51.508;18.118;2022-11-20T09:21:38;118.53;;;47.88;;
23310;SDS011;11828;51.508;18.118;2022-11-20T09:24:04;111.70;;;45.40;;
23310;SDS011;11828;51.508;18.118;2022-11-20T09:26:30;121.53;;;51.70;;
23310;SDS011;11828;51.508;18.118;2022-11-20T09:28:56;83.68;;;39.00;;
23310;SDS011;11828;51.508;18.118;2022-11-20T09:31:23;98.43;;;43.90;;
23310;SDS011;11828;51.508;18.118;2022-11-20T09:33:51;93.57;;;41.33;;
23310;SDS011;11828;51.508;18.118;2022-11-20T09:36:17;90.78;;;40.42;;
23310;SDS011;11828;51.508;18.118;2022-11-20T09:38:44;102.82;;;44.55;;
23310;SDS011;11828;51.508;18.118;2022-11-20T09:41:19;94.45;;;42.08;;
23310;SDS011;11828;51.508;18.118;2022-11-20T09:47:01;91.60;;;40.20;;
23310;SDS011;11828;51.508;18.118;2022-11-20T09:55:52;145.73;;;53.97;;
23310;SDS011;11828;51.508;18.118;2022-11-20T10:01:00;99.28;;;41.85;;
23310;SDS011;11828;51.508;18.118;2022-11-20T10:04:01;92.70;;;35.53;;
23310;SDS011;11828;51.508;18.118;2022-11-20T10:06:31;74.55;;;31.65;;
23310;SDS011;11828;51.508;18.118;2022-11-20T10:09:03;119.18;;;41.53;;
23310;SDS011;11828;51.508;18.118;2022-11-20T10:14:35;122.70;;;44.97;;
23310;SDS011;11828;51.508;18.118;2022-11-20T10:17:30;108.38;;;41.95;;
23310;SDS011;11828;51.508;18.118;2022-11-20T10:20:20;86.55;;;36.28;;
23310;SDS011;11828;51.508;18.118;2022-11-20T10:23:11;106.95;;;39.83;;
23310;SDS011;11828;51.508;18.118;2022-11-20T10:26:17;92.68;;;37.55;;
23310;SDS011;11828;51.508;18.118;2022-11-20T10:29:01;71.78;;;30.02;;
23310;SDS011;11828;51.508;18.118;2022-11-20T10:31:40;99.00;;;40.10;;
23310;SDS011;11828;51.508;18.118;2022-11-20T10:37:09;86.22;;;34.28;;
23310;SDS011;11828;51.508;18.118;2022-11-20T10:42:34;84.45;;;34.35;;
23310;SDS011;11828;51.508;18.118;2022-11-20T10:45:19;105.40;;;39.38;;
23310;SDS011;11828;51.508;18.118;2022-11-20T10:48:10;101.80;;;37.08;;
23310;SDS011;11828;51.508;18.118;2022-11-20T10:50:55;120.82;;;43.72;;
23310;SDS011;11828;51.508;18.118;2022-11-20T10:56:35;94.35;;;38.28;;
23310;SDS011;11828;51.508;18.118;2022-11-20T10:59:27;85.18;;;34.65;;
23310;SDS011;11828;51.508;18.118;2022-11-20T11:02:00;68.13;;;30.08;;
23310;SDS011;11828;51.508;18.118;2022-11-20T11:04:35;66.00;;;30.23;;
23310;SDS011;11828;51.508;18.118;2022-11-20T11:09:50;66.32;;;29.88;;
23310;SDS011;11828;51.508;18.118;2022-11-20T11:12:19;69.13;;;30.58;;
23310;SDS011;11828;51.508;18.118;2022-11-20T11:14:50;84.63;;;36.72;;
23310;SDS011;11828;51.508;18.118;2022-11-20T11:17:22;126.35;;;47.70;;
23310;SDS011;11828;51.508;18.118;2022-11-20T11:19:58;107.38;;;42.05;;
23310;SDS011;11828;51.508;18.118;2022-11-20T11:22:31;155.90;;;57.67;;
23310;SDS011;11828;51.508;18.118;2022-11-20T11:25:00;127.00;;;45.83;;
23310;SDS011;11828;51.508;18.118;2022-11-20T11:27:26;75.13;;;29.92;;
23310;SDS011;11828;51.508;18.118;2022-11-20T11:30:10;71.78;;;29.33;;
23310;SDS011;11828;51.508;18.118;2022-11-20T11:32:41;130.07;;;51.22;;
23310;SDS011;11828;51.508;18.118;2022-11-20T11:35:23;94.10;;;40.78;;
23310;SDS011;11828;51.508;18.118;2022-11-20T11:37:54;61.33;;;25.77;;
23310;SDS011;11828;51.508;18.118;2022-11-20T11:40:33;65.85;;;31.00;;
23310;SDS011;11828;51.508;18.118;2022-11-20T11:43:16;58.13;;;28.13;;
23310;SDS011;11828;51.508;18.118;2022-11-20T11:46:13;64.60;;;29.15;;
23310;SDS011;11828;51.508;18.118;2022-11-20T11:48:58;49.97;;;21.17;;
23310;SDS011;11828;51.508;18.118;2022-11-20T11:51:57;34.95;;;17.60;;
23310;SDS011;11828;51.508;18.118;2022-11-20T11:57:39;39.90;;;18.50;;
23310;SDS011;11828;51.508;18.118;2022-11-20T12:00:20;39.47;;;18.10;;
23310;SDS011;11828;51.508;18.118;2022-11-20T12:03:09;55.55;;;28.17;;
23310;SDS011;11828;51.508;18.118;2022-11-20T12:05:49;65.05;;;32.85;;
23310;SDS011;11828;51.508;18.118;2022-11-20T12:08:28;73.35;;;38.15;;
23310;SDS011;11828;51.508;18.118;2022-11-20T12:11:11;106.65;;;55.58;;
23310;SDS011;11828;51.508;18.118;2022-11-20T12:13:58;79.60;;;41.70;;
23310;SDS011;11828;51.508;18.118;2022-11-20T12:16:35;96.47;;;47.25;;
23310;SDS011;11828;51.508;18.118;2022-11-20T12:19:04;53.03;;;26.73;;
23310;SDS011;11828;51.508;18.118;2022-11-20T12:21:47;73.43;;;39.88;;
23310;SDS011;11828;51.508;18.118;2022-11-20T12:24:59;96.63;;;50.20;;
23310;SDS011;11828;51.508;18.118;2022-11-20T12:33:45;144.25;;;49.83;;
23310;SDS011;11828;51.508;18.118;2022-11-20T12:36:28;72.90;;;32.20;;
23310;SDS011;11828;51.508;18.118;2022-11-20T12:39:20;293.77;;;85.68;;
23310;SDS011;11828;51.508;18.118;2022-11-20T12:42:33;271.48;;;84.72;;
23310;SDS011;11828;51.508;18.118;2022-11-20T12:45:54;213.75;;;73.60;;
23310;SDS011;11828;51.508;18.118;2022-11-20T12:51:33;70.28;;;32.10;;
23310;SDS011;11828;51.508;18.118;2022-11-20T12:54:18;70.95;;;30.45;;
23310;SDS011;11828;51.508;18.118;2022-11-20T13:08:12;53.50;;;22.90;;
23310;SDS011;11828;51.508;18.118;2022-11-20T13:19:20;40.05;;;18.20;;
23310;SDS011;11828;51.508;18.118;2022-11-20T13:21:47;47.13;;;21.48;;
23310;SDS011;11828;51.508;18.118;2022-11-20T13:29:33;57.15;;;28.50;;
23310;SDS011;11828;51.508;18.118;2022-11-20T13:32:20;56.35;;;27.63;;
23310;SDS011;11828;51.508;18.118;2022-11-20T13:34:59;67.10;;;32.28;;
23310;SDS011;11828;51.508;18.118;2022-11-20T13:37:32;85.22;;;39.45;;
23310;SDS011;11828;51.508;18.118;2022-11-20T13:42:44;178.25;;;78.57;;
23310;SDS011;11828;51.508;18.118;2022-11-20T13:45:40;87.80;;;40.17;;
23310;SDS011;11828;51.508;18.118;2022-11-20T13:48:22;83.90;;;39.55;;
23310;SDS011;11828;51.508;18.118;2022-11-20T13:51:35;82.03;;;41.60;;
23310;SDS011;11828;51.508;18.118;2022-11-20T13:56:47;77.72;;;33.42;;
23310;SDS011;11828;51.508;18.118;2022-11-20T14:02:33;69.35;;;30.08;;
23310;SDS011;11828;51.508;18.118;2022-11-20T14:04:59;68.85;;;29.40;;
23310;SDS011;11828;51.508;18.118;2022-11-20T14:07:31;69.75;;;31.00;;
23310;SDS011;11828;51.508;18.118;2022-11-20T14:10:05;64.05;;;26.77;;
23310;SDS011;11828;51.508;18.118;2022-11-20T14:12:45;67.15;;;27.98;;
23310;SDS011;11828;51.508;18.118;2022-11-20T14:15:33;62.28;;;28.75;;
23310;SDS011;11828;51.508;18.118;2022-11-20T14:17:59;57.30;;;24.73;;
23310;SDS011;11828;51.508;18.118;2022-11-20T14:20:47;57.70;;;24.85;;
23310;SDS011;11828;51.508;18.118;2022-11-20T14:23:22;48.22;;;22.35;;
23310;SDS011;11828;51.508;18.118;2022-11-20T14:25:53;75.32;;;34.33;;
23310;SDS011;11828;51.508;18.118;2022-11-20T14:28:22;82.55;;;36.55;;
23310;SDS011;11828;51.508;18.118;2022-11-20T14:30:52;67.63;;;30.73;;
23310;SDS011;11828;51.508;18.118;2022-11-20T14:33:20;67.55;;;28.52;;
23310;SDS011;11828;51.508;18.118;2022-11-20T14:35:54;70.63;;;26.77;;
23310;SDS011;11828;51.508;18.118;2022-11-20T14:38:22;61.40;;;25.08;;
23310;SDS011;11828;51.508;18.118;2022-11-20T14:40:52;53.30;;;23.13;;
23310;SDS011;11828;51.508;18.118;2022-11-20T14:43:23;47.78;;;20.33;;
23310;SDS011;11828;51.508;18.118;2022-11-20T14:45:54;45.20;;;19.80;;
23310;SDS011;11828;51.508;18.118;2022-11-20T14:48:31;46.92;;;19.45;;
23310;SDS011;11828;51.508;18.118;2022-11-20T14:51:04;46.95;;;19.60;;
23310;SDS011;11828;51.508;18.118;2022-11-20T14:53:30;46.17;;;19.70;;
23310;SDS011;11828;51.508;18.118;2022-11-20T14:55:57;45.83;;;18.17;;
23310;SDS011;11828;51.508;18.118;2022-11-20T14:58:27;52.53;;;19.48;;
23310;SDS011;11828;51.508;18.118;2022-11-20T15:00:58;49.33;;;19.92;;
23310;SDS011;11828;51.508;18.118;2022-11-20T15:03:32;48.50;;;19.98;;
23310;SDS011;11828;51.508;18.118;2022-11-20T15:06:05;62.40;;;26.05;;
23310;SDS011;11828;51.508;18.118;2022-11-20T15:08:33;49.75;;;22.45;;
23310;SDS011;11828;51.508;18.118;2022-11-20T15:11:00;47.90;;;20.27;;
23310;SDS011;11828;51.508;18.118;2022-11-20T15:13:30;46.20;;;20.60;;
23310;SDS011;11828;51.508;18.118;2022-11-20T15:16:03;50.33;;;20.95;;
23310;SDS011;11828;51.508;18.118;2022-11-20T15:18:37;51.67;;;20.58;;
23310;SDS011;11828;51.508;18.118;2022-11-20T15:21:11;55.90;;;21.25;;
23310;SDS011;11828;51.508;18.118;2022-11-20T15:23:40;53.58;;;22.90;;
23310;SDS011;11828;51.508;18.118;2022-11-20T15:26:08;78.72;;;31.63;;
23310;SDS011;11828;51.508;18.118;2022-11-20T15:28:36;77.10;;;30.98;;
23310;SDS011;11828;51.508;18.118;2022-11-20T15:31:11;83.85;;;33.20;;
23310;SDS011;11828;51.508;18.118;2022-11-20T15:33:38;94.95;;;36.75;;
23310;SDS011;11828;51.508;18.118;2022-11-20T15:36:04;83.80;;;34.53;;
23310;SDS011;11828;51.508;18.118;2022-11-20T15:38:30;93.47;;;39.42;;
23310;SDS011;11828;51.508;18.118;2022-11-20T15:40:56;107.03;;;41.95;;
23310;SDS011;11828;51.508;18.118;2022-11-20T15:43:22;100.70;;;40.75;;
23310;SDS011;11828;51.508;18.118;2022-11-20T15:45:49;90.38;;;37.70;;
23310;SDS011;11828;51.508;18.118;2022-11-20T15:48:22;113.18;;;47.28;;